AirNav   TITAN Aviation Fuels
 
 1509 users online  

OK54 May Ranch Airport
Alva, Oklahoma, USA

GOING TO ALVA?


FAA INFORMATION EFFECTIVE 15 JULY 2021

Location

FAA Identifier: OK54
Lat/Long: 36-59-48.1070N 099-00-17.3620W
36-59.801783N 099-00.289367W
36.9966964,-99.0048228
(estimated)
Elevation: 1833 ft. / 559 m (estimated)
Variation: 08E (1985)
From city: 20 miles NW of ALVA, OK
Time zone: UTC -5 (UTC -6 during Standard Time)
Zip code: 73717

Airport Operations

Airport use: Private use. Permission required prior to landing
Activation date: 12/1958
Control tower: no
ARTCC: KANSAS CITY CENTER
FSS: MC ALESTER FLIGHT SERVICE STATION
Attendance: UNATNDD
Wind indicator: yes
Segmented circle: no

Airport Services

Parking: hangars and tiedowns
Airframe service: NONE
Powerplant service: NONE

Runway Information

Runway 17/35

Dimensions: 2000 x 60 ft. / 610 x 18 m
Surface: turf, in fair condition
RUNWAY 17  RUNWAY 35
Traffic pattern: leftleft
Obstructions: 15 ft. road35 ft. trees, 130 ft. from runway, 3:1 slope to clear

Runway 8/26

Dimensions: 1500 x 75 ft. / 457 x 23 m
Surface: turf, in good condition
RUNWAY 8  RUNWAY 26
Traffic pattern: leftleft
Obstructions: none10 ft. road

Airport Ownership and Management from official FAA records

Ownership: Privately-owned
Owner: LEON E. MAY
25638 PAYNE RD
ALVA, OK 73717
Phone 405-621-3480
Manager: LEON E. MAY
25638 PAYNE RD
ALVA, OK 73717
Phone 405-621-3480

Airport Operational Statistics

Aircraft operations: 100/year *
100% transient general aviation
* for 12-month period ending 07 April 1989

Additional Remarks

FOR CD CTC KANSAS CITY ARTCC AT 913-254-8508.

Instrument Procedures

There are no published instrument procedures at OK54.

Some nearby airports with instrument procedures:

3K8 - Comanche County Airport (21 nm NW)
KAVK - Alva Regional Airport (21 nm SE)
KBFK - Buffalo Municipal Airport (31 nm W)
KMDF - Mooreland Municipal Airport (32 nm S)
KWWR - West Woodward Airport (42 nm SW)
 
Loc | Ops | Rwys | IFR | FBO | Links
Com | Nav | Svcs | Stats | Notes

AirBoss

 
Area around OK54 (May Ranch Airport)
 
Road maps at: MapQuest Bing Google
 
Aerial photo
No photo
 
Sectional chart

 
Airport distance calculator
Flying to May Ranch Airport? Find the distance to fly.

From to OK54

Sunrise and sunset
Times for 05-Aug-2021
 Local
(UTC-5)
 Zulu
(UTC)
Morning civil twilight06:1711:17
Sunrise06:4511:45
Sunset20:3801:38
Evening civil twilight21:0702:07

Current date and time
Zulu (UTC)  05-Aug-2021 15:01:37
Local (UTC-5)  05-Aug-2021 10:01:37
 
METAR
K3K8 
21nm NW 
051455Z AUTO VRB03KT 26/16 A3013 RMK AO2 PWINO
KAVK 
21nm SE 
051455Z AUTO 18006KT 9SM CLR 27/17 A3009 RMK AO2
KP28 
28nm NE 
051456Z AUTO 20006KT 26/16 A3008 RMK AO1 SLP170 T02610161 50004 $
KWWR 
34nm SW 
051430Z AUTO 21005KT 10SM CLR 25/17 A3015 RMK AO2
TAF
KWWR 
34nm SW 
051120Z 0512/0612 21006KT P6SM BKN100 FM052000 19010KT P6SM SCT250
NOTAMs
Click for the latest NOTAMs
NOTAMs are issued by the DoD/FAA and will open in a separate window not controlled by AirNav.

 

 
 

Would you like to see your business listed on this page?

 If your business provides an interesting product or service to pilots, flight crews, aircraft, or users of the May Ranch Airport, you should consider listing it here.  To start the listing process, click on the button below
 
Add a business
 

Other Pages about May Ranch Airport

Update a link
 
Copyright © AirNav, LLC. All rights reserved. Privacy Policy  Contact